This is the latest recevied weather packets stored in our database for station/object IK1YPD-13. If no packets are shown the sender has not sent any weather packets the latest 10 day(s).
| Time | Temp. | Humidity | Pressure | Rain* | Wind** | Luminosity | Snow |
|---|---|---|---|---|---|---|---|
| 1777901923 | 19.44° C | 52% | 1014 hPa | - | - | - | - |
| 1777901023 | 19.44° C | 55% | 1014 hPa | - | - | - | - |
| 1777900123 | 18.89° C | 55% | 1014 hPa | - | - | - | - |
| 1777898323 | 20° C | 50% | 1015 hPa | - | - | - | - |
| 1777897423 | 20° C | 51% | 1015 hPa | - | - | - | - |
| 1777896523 | 20° C | 50% | 1015 hPa | - | - | - | - |
| 1777895623 | 20° C | 52% | 1015 hPa | - | - | - | - |
| 1777894723 | 20° C | 51% | 1015 hPa | - | - | - | - |
| 1777893823 | 19.44° C | 57% | 1015 hPa | - | - | - | - |
| 1777892923 | 18.89° C | 57% | 1015 hPa | - | - | - | - |
| 1777891123 | 18.89° C | 56% | 1015 hPa | - | - | - | - |
| 1777889322 | 18.33° C | 56% | 1015 hPa | - | - | - | - |
| 1777887522 | 18.33° C | 52% | 1015 hPa | - | - | - | - |
| 1777886622 | 18.33° C | 52% | 1015 hPa | - | - | - | - |
| 1777885722 | 18.89° C | 50% | 1015 hPa | - | - | - | - |
| 1777884822 | 18.89° C | 48% | 1015 hPa | - | - | - | - |
| 1777883922 | 18.89° C | 46% | 1015 hPa | - | - | - | - |
| 1777883022 | 18.89° C | 47% | 1015 hPa | - | - | - | - |
| 1777882122 | 18.89° C | 44% | 1015 hPa | - | - | - | - |
| 1777881222 | 18.89° C | 42% | 1014 hPa | - | - | - | - |
| 1777880322 | 18.33° C | 44% | 1015 hPa | - | - | - | - |
| 1777879422 | 18.33° C | 49% | 1014 hPa | - | - | - | - |
| 1777878522 | 18.33° C | 48% | 1014 hPa | - | - | - | - |
| 1777877621 | 18.89° C | 47% | 1014 hPa | - | - | - | - |
| 1777876721 | 19.44° C | 47% | 1014 hPa | - | - | - | - |
* Rain since midnight (hover to see other rain measurements)
** Current wind speed in m/s (hover to see current wind gust speed)